Niwot, Colorado
Current Conditions -  °F | °C
As of 3:33 PM on Friday 24 Oct 2014 (Local Time) from KLMO Reporting Station
Clear Clear  
Wind Chill: 85°   Ceiling: Unl
Heat Index: 85°   Visibility: 10mi
Dew Point: 23°   Wind: 6mph
Humidity: 11%   Direction: 120°ESE
Pressure: 30.12"   Gusts: NA
Location:  40.1°N, 105.17°W
Report Text: KLMO 242133Z AUTO 12005KT 10SM CLR 29/M05 A3012 RMK AO2 T02921048
Loading
Personal Weather Stations






























Interactive Weather Map
Tropical Storm Tracking
New forecast layout! Learn more

10-Day Weather Forecast

Advertisements
Track Severe Weather on mobile